Time;durP1;ratioP1;P1;durP2;ratioP2;P2;SDS_P1;SDS_P2;PMS_P1;PMS_P2;Temp;Humidity;BMP_temperature;BMP_pressure;BME280_temperature;BME280_humidity;BME280_pressure;Samples;Min_cycle;Max_cycle;Signal;HPM_P1;HPM_P2
2022/04/05 00:02:04;;;;;;;2.15;1.10;;;21.60;42.80;;;;;;6247504;28;20372;-43
2022/04/05 00:05:06;;;;;;;2.63;1.17;;;21.60;43.00;;;;;;6268571;28;20055;-44
2022/04/05 00:08:08;;;;;;;2.47;1.08;;;21.50;43.00;;;;;;6272631;28;20074;-43
2022/04/05 00:11:09;;;;;;;2.58;1.00;;;21.60;43.10;;;;;;6292568;27;20167;-43
2022/04/05 00:14:11;;;;;;;4.75;1.00;;;21.70;43.20;;;;;;6290405;28;20805;-43
2022/04/05 00:17:14;;;;;;;2.67;0.80;;;21.60;43.30;;;;;;6278380;28;20169;-42
2022/04/05 00:20:15;;;;;;;4.10;1.38;;;21.60;43.40;;;;;;6293298;28;20137;-44
2022/04/05 00:23:17;;;;;;;3.22;1.17;;;21.50;43.40;;;;;;6299658;27;20044;-42
2022/04/05 00:26:19;;;;;;;4.03;1.45;;;21.60;43.60;;;;;;6283446;28;20047;-42
2022/04/05 00:29:22;;;;;;;3.67;1.27;;;21.60;43.70;;;;;;6274912;28;20044;-44
2022/04/05 00:32:24;;;;;;;4.55;1.20;;;21.60;43.80;;;;;;6290865;27;20086;-42
2022/04/05 00:35:25;;;;;;;3.95;1.40;;;21.60;43.90;;;;;;6285778;28;21144;-42
2022/04/05 00:38:27;;;;;;;2.83;1.10;;;21.50;43.90;;;;;;6281592;28;20911;-42
2022/04/05 00:41:28;;;;;;;;;;;21.40;44.00;;;;;;6274958;27;20035;-44
2022/04/05 00:44:30;;;;;;;2.72;1.05;;;21.60;44.10;;;;;;6277558;27;19941;-42
2022/04/05 00:47:34;;;;;;;2.33;1.13;;;21.60;43.90;;;;;;6285954;27;20100;-43
2022/04/05 00:50:38;;;;;;;4.28;1.30;;;21.50;44.20;;;;;;6282860;28;20961;-43
2022/04/05 00:53:41;;;;;;;3.38;1.15;;;21.60;44.30;;;;;;6277512;27;20055;-45
2022/04/05 00:56:44;;;;;;;3.35;1.38;;;21.50;44.30;;;;;;6277676;28;20059;-42
2022/04/05 00:59:48;;;;;;;4.10;1.00;;;21.80;44.50;;;;;;6278511;28;20418;-43
2022/04/05 01:02:53;;;;;;;3.63;1.23;;;21.40;44.40;;;;;;6244325;28;20928;-42
2022/04/05 01:05:55;;;;;;;4.00;1.10;;;21.50;44.50;;;;;;6279833;28;20116;-45
2022/04/05 01:08:57;;;;;;;3.92;1.33;;;21.40;44.50;;;;;;6278264;28;20173;-42
2022/04/05 01:11:59;;;;;;;3.78;1.30;;;21.50;44.60;;;;;;6263497;27;20032;-42
2022/04/05 01:15:00;;;;;;;3.20;1.00;;;21.50;44.70;;;;;;6274262;28;20984;-42
2022/04/05 01:18:03;;;;;;;2.30;1.00;;;21.40;44.70;;;;;;6278638;28;20047;-44
2022/04/05 01:21:05;;;;;;;2.95;1.05;;;21.50;44.80;;;;;;6275119;27;20071;-42
2022/04/05 01:24:09;;;;;;;2.63;0.93;;;21.40;44.80;;;;;;6282879;27;20260;-42
2022/04/05 01:27:17;;;;;;;2.33;1.00;;;21.40;44.90;;;;;;6264287;28;20472;-44
2022/04/05 01:30:18;;;;;;;2.38;1.20;;;21.40;44.90;;;;;;6260890;28;20479;-42
2022/04/05 01:33:21;;;;;;;2.03;0.70;;;21.40;44.90;;;;;;6265671;28;20059;-44
2022/04/05 01:36:23;;;;;;;2.08;0.82;;;21.50;45.00;;;;;;6266150;28;20658;-42
2022/04/05 01:39:28;;;;;;;2.10;0.90;;;21.50;45.00;;;;;;6270560;28;20039;-43
2022/04/05 01:42:29;;;;;;;2.25;1.33;;;21.50;45.20;;;;;;6260958;28;20523;-43
2022/04/05 01:45:31;;;;;;;1.77;0.68;;;21.50;45.10;;;;;;6283199;27;20286;-42
2022/04/05 01:48:33;;;;;;;2.95;0.98;;;21.50;45.80;;;;;;6270581;27;20356;-42
2022/04/05 01:51:35;;;;;;;;;;;21.50;45.20;;;;;;6267760;27;20051;-42
2022/04/05 01:54:38;;;;;;;2.10;1.00;;;21.40;45.20;;;;;;6265566;28;20150;-43
2022/04/05 01:57:39;;;;;;;1.70;0.70;;;21.50;45.00;;;;;;6269987;28;20275;-43
2022/04/05 02:00:41;;;;;;;1.50;0.88;;;21.40;45.10;;;;;;6278393;28;20485;-44
2022/04/05 02:03:43;;;;;;;2.53;0.60;;;21.50;45.20;;;;;;6282294;27;20471;-42
2022/04/05 02:06:46;;;;;;;2.67;0.85;;;21.50;45.30;;;;;;6274378;28;20055;-42
2022/04/05 02:09:49;;;;;;;1.55;0.60;;;21.60;45.40;;;;;;6254820;28;20202;-43
2022/04/05 02:12:52;;;;;;;1.52;0.50;;;21.50;45.40;;;;;;6268045;28;20113;-42
2022/04/05 02:16:13;;;;;;;1.65;0.60;;;21.50;45.40;;;;;;6277886;27;20188;-42
2022/04/05 02:19:17;;;;;;;1.52;0.50;;;21.50;45.40;;;;;;6273219;27;20609;-42
2022/04/05 02:22:19;;;;;;;0.80;0.50;;;21.30;45.40;;;;;;6250560;28;20699;-42
2022/04/05 02:25:26;;;;;;;1.63;0.60;;;21.50;45.60;;;;;;6265774;28;20382;-44
2022/04/05 02:28:31;;;;;;;1.15;0.40;;;21.40;45.50;;;;;;6261536;27;20035;-42
2022/04/05 02:31:38;;;;;;;1.30;0.68;;;21.40;45.50;;;;;;6272766;28;20462;-43
2022/04/05 02:34:42;;;;;;;0.93;0.50;;;21.50;45.60;;;;;;6270325;28;20449;-42
2022/04/05 02:37:44;;;;;;;0.93;0.57;;;21.50;45.60;;;;;;6279676;28;20044;-42
2022/04/05 02:40:50;;;;;;;0.98;0.50;;;21.50;45.70;;;;;;6271516;28;20109;-42
2022/04/05 02:43:52;;;;;;;0.90;0.40;;;21.40;45.70;;;;;;6280362;27;20139;-42
2022/04/05 02:46:55;;;;;;;0.90;0.50;;;21.40;45.70;;;;;;6265205;28;20092;-42
2022/04/05 02:49:59;;;;;;;1.10;0.70;;;21.40;45.80;;;;;;6265152;28;20168;-42
2022/04/05 02:53:04;;;;;;;1.23;0.52;;;21.50;45.90;;;;;;6282498;27;20480;-44
2022/04/05 02:56:08;;;;;;;0.60;0.43;;;21.30;45.80;;;;;;6274888;28;20368;-42
2022/04/05 02:59:13;;;;;;;0.80;0.40;;;21.40;45.90;;;;;;6279221;27;20820;-43
2022/04/05 03:02:16;;;;;;;0.60;0.40;;;21.30;45.80;;;;;;6262839;28;20212;-42
2022/04/05 03:05:21;;;;;;;0.65;0.40;;;21.50;46.00;;;;;;6275156;27;20534;-43
2022/04/05 03:08:24;;;;;;;0.60;0.47;;;21.30;45.90;;;;;;6276820;27;20035;-42
2022/04/05 03:11:27;;;;;;;0.45;0.30;;;21.50;46.10;;;;;;6281511;27;20035;-42
2022/04/05 03:14:30;;;;;;;0.77;0.50;;;21.50;46.10;;;;;;6281089;27;20758;-44
2022/04/05 03:17:34;;;;;;;0.70;0.40;;;21.50;46.20;;;;;;6267972;28;20707;-44
2022/04/05 03:20:36;;;;;;;0.95;0.50;;;21.50;46.30;;;;;;6247692;28;20287;-42
2022/04/05 03:23:38;;;;;;;1.27;0.50;;;21.20;46.10;;;;;;6264033;28;20040;-43
2022/04/05 03:26:40;;;;;;;0.82;0.32;;;21.40;46.20;;;;;;6288959;27;20036;-41
2022/04/05 03:29:42;;;;;;;0.60;0.40;;;21.40;46.30;;;;;;6263520;28;20047;-43
2022/04/05 03:32:44;;;;;;;0.40;0.40;;;21.40;46.40;;;;;;6266413;28;20582;-44
2022/04/05 03:35:46;;;;;;;0.40;0.40;;;21.40;46.40;;;;;;6277937;27;20066;-44
2022/04/05 03:38:48;;;;;;;0.60;0.40;;;21.40;46.40;;;;;;6267146;27;20300;-42
2022/04/05 03:41:52;;;;;;;0.60;0.40;;;21.40;46.50;;;;;;6276801;27;20929;-42
2022/04/05 03:44:54;;;;;;;1.27;0.50;;;21.40;46.60;;;;;;6270811;27;20133;-42
2022/04/05 03:47:56;;;;;;;0.50;0.40;;;21.40;46.60;;;;;;6272589;27;20039;-43
2022/04/05 03:50:58;;;;;;;0.75;0.40;;;21.50;46.80;;;;;;6274587;27;20066;-43
2022/04/05 03:53:59;;;;;;;;;;;21.40;47.20;;;;;;6273860;28;20589;-42
2022/04/05 03:57:05;;;;;;;0.80;0.50;;;21.40;46.80;;;;;;6265767;28;20194;-43
2022/04/05 04:00:08;;;;;;;1.08;0.50;;;21.40;46.70;;;;;;6239709;28;20443;-43
2022/04/05 04:03:16;;;;;;;1.33;0.50;;;21.40;46.80;;;;;;6256294;28;20055;-44
2022/04/05 04:06:19;;;;;;;1.00;0.60;;;21.40;46.90;;;;;;6267307;28;20036;-42
2022/04/05 04:09:21;;;;;;;1.50;0.60;;;21.40;47.00;;;;;;6261805;28;20299;-44
2022/04/05 04:12:24;;;;;;;1.83;0.90;;;21.40;47.00;;;;;;6273657;27;20035;-42
2022/04/05 04:15:25;;;;;;;1.52;0.47;;;21.40;47.10;;;;;;6258474;27;20499;-43
2022/04/05 04:18:28;;;;;;;2.35;0.73;;;21.50;47.20;;;;;;6270038;27;20032;-43
2022/04/05 04:21:31;;;;;;;1.52;0.73;;;21.40;47.30;;;;;;6269990;27;20287;-43
2022/04/05 04:24:33;;;;;;;2.22;0.85;;;21.40;47.30;;;;;;6247737;28;20135;-43
2022/04/05 04:27:35;;;;;;;2.25;0.60;;;21.60;47.50;;;;;;6267997;28;20045;-42
2022/04/05 04:30:39;;;;;;;2.58;0.90;;;21.40;47.40;;;;;;6272175;27;20036;-45
2022/04/05 04:33:41;;;;;;;2.78;0.90;;;21.30;47.40;;;;;;6257198;28;20380;-43
2022/04/05 04:36:42;;;;;;;;;;;21.40;47.50;;;;;;6276558;27;20343;-43
2022/04/05 04:39:44;;;;;;;3.30;0.85;;;21.40;47.60;;;;;;6276821;27;20791;-43
2022/04/05 04:42:46;;;;;;;1.83;0.75;;;21.40;47.40;;;;;;6271713;27;20195;-42
2022/04/05 04:45:48;;;;;;;2.55;1.15;;;21.40;47.50;;;;;;6248106;28;20044;-43
2022/04/05 04:48:49;;;;;;;2.05;0.90;;;21.40;47.70;;;;;;6246351;28;20048;-43
2022/04/05 04:51:51;;;;;;;1.45;0.80;;;21.20;47.60;;;;;;6254002;28;20082;-44
2022/04/05 04:54:52;;;;;;;;;;;21.30;47.70;;;;;;6260099;28;20501;-43
2022/04/05 04:57:56;;;;;;;2.15;0.95;;;21.40;47.70;;;;;;6250550;28;20026;-42
2022/04/05 05:00:57;;;;;;;3.03;1.15;;;21.40;47.70;;;;;;6280969;27;20880;-43
2022/04/05 05:03:59;;;;;;;3.15;1.00;;;21.40;47.80;;;;;;6257170;28;20061;-42
2022/04/05 05:07:00;;;;;;;2.78;1.15;;;21.30;47.80;;;;;;6261135;28;20460;-45
2022/04/05 05:10:02;;;;;;;4.32;1.60;;;21.30;47.90;;;;;;6286624;28;20988;-42
2022/04/05 05:13:04;;;;;;;1.60;0.75;;;21.30;47.90;;;;;;6288952;27;20047;-43
2022/04/05 05:16:06;;;;;;;3.03;0.88;;;21.30;48.00;;;;;;6297262;28;21309;-43
2022/04/05 05:19:09;;;;;;;2.05;1.17;;;21.30;48.00;;;;;;6276190;27;20833;-45
2022/04/05 05:22:10;;;;;;;1.88;0.90;;;21.30;48.10;;;;;;6294215;27;20602;-43
2022/04/05 05:25:12;;;;;;;;;;;21.30;48.20;;;;;;6279869;28;20589;-43
2022/04/05 05:28:14;;;;;;;2.03;0.70;;;21.20;48.10;;;;;;6277417;28;20420;-45
2022/04/05 05:31:16;;;;;;;2.20;1.08;;;21.30;48.00;;;;;;6276912;27;20043;-44
2022/04/05 05:34:22;;;;;;;5.68;1.38;;;21.30;48.10;;;;;;6279040;28;20055;-42
2022/04/05 05:37:23;;;;;;;1.90;0.70;;;21.30;48.20;;;;;;6265107;28;20383;-44
2022/04/05 05:40:25;;;;;;;;;;;21.30;48.30;;;;;;6266815;28;20122;-44
2022/04/05 05:43:27;;;;;;;2.13;0.60;;;21.30;48.30;;;;;;6250592;28;19920;-43
2022/04/05 05:46:29;;;;;;;2.17;0.68;;;21.30;48.20;;;;;;6262467;28;20888;-44
2022/04/05 05:49:31;;;;;;;1.98;0.80;;;21.40;48.30;;;;;;6259376;27;20048;-45
2022/04/05 05:52:32;;;;;;;0.75;0.40;;;21.40;48.40;;;;;;6264893;27;20345;-43
2022/04/05 05:55:35;;;;;;;;;;;21.40;48.40;;;;;;6276083;28;21021;-46
2022/04/05 05:58:37;;;;;;;1.70;0.50;;;21.50;49.00;;;;;;6257455;28;19920;-42
2022/04/05 06:01:39;;;;;;;2.17;0.57;;;21.40;48.20;;;;;;6256095;28;20043;-44
2022/04/05 06:04:42;;;;;;;1.40;0.70;;;21.50;48.30;;;;;;6281867;27;20039;-43
2022/04/05 06:07:44;;;;;;;2.40;0.70;;;21.50;48.30;;;;;;6267266;27;20113;-45
2022/04/05 06:10:45;;;;;;;;;;;21.50;48.40;;;;;;6260469;28;20922;-43
2022/04/05 06:13:48;;;;;;;1.42;0.60;;;21.50;48.20;;;;;;6255798;28;19962;-42
2022/04/05 06:16:49;;;;;;;2.92;0.93;;;21.50;48.00;;;;;;6241134;27;20082;-42
2022/04/05 06:19:51;;;;;;;3.42;1.10;;;21.60;48.10;;;;;;6263318;27;21455;-42
2022/04/05 06:22:55;;;;;;;3.50;1.00;;;21.70;48.20;;;;;;6247789;27;20042;-44
2022/04/05 06:25:56;;;;;;;3.15;1.15;;;21.80;48.40;;;;;;6215931;28;20050;-43
2022/04/05 06:28:58;;;;;;;;;;;21.70;47.70;;;;;;6227964;27;20104;-43
2022/04/05 06:32:01;;;;;;;4.53;0.82;;;21.70;48.20;;;;;;6222847;28;19942;-42
2022/04/05 06:35:04;;;;;;;6.00;1.10;;;21.90;48.10;;;;;;6239885;27;20039;-45
2022/04/05 06:38:06;;;;;;;3.72;0.82;;;21.90;48.30;;;;;;6161004;27;21934;-45
2022/04/05 06:41:07;;;;;;;5.82;1.20;;;21.80;48.20;;;;;;6220312;27;20074;-44
2022/04/05 06:44:09;;;;;;;7.30;1.42;;;21.80;48.30;;;;;;6197248;27;20044;-43
2022/04/05 06:47:11;;;;;;;6.55;1.52;;;21.80;48.30;;;;;;6173819;27;20091;-43
2022/04/05 06:50:17;;;;;;;4.43;1.65;;;21.80;48.50;;;;;;6179952;28;20316;-44
2022/04/05 06:53:18;;;;;;;5.07;1.52;;;21.80;48.60;;;;;;6184360;27;22075;-45
2022/04/05 06:56:21;;;;;;;3.03;0.90;;;21.90;48.80;;;;;;6145032;27;21344;-45
2022/04/05 06:59:23;;;;;;;3.55;1.02;;;21.80;48.90;;;;;;6179648;27;20043;-44
2022/04/05 07:02:25;;;;;;;3.05;0.60;;;21.80;48.80;;;;;;6125385;27;20182;-45
2022/04/05 07:05:28;;;;;;;2.67;1.25;;;21.90;48.80;;;;;;6080060;27;20177;-44
2022/04/05 07:08:31;;;;;;;4.25;0.73;;;21.90;49.00;;;;;;6111080;27;20050;-44
2022/04/05 07:11:33;;;;;;;2.67;0.47;;;21.90;49.10;;;;;;6093270;27;20135;-44
2022/04/05 07:14:35;;;;;;;3.63;0.70;;;22.20;49.30;;;;;;6088041;28;21037;-45
2022/04/05 07:17:38;;;;;;;1.58;0.40;;;22.10;49.10;;;;;;6080449;28;22313;-45
2022/04/05 07:21:01;;;;;;;0.70;0.30;;;22.10;49.60;;;;;;6070956;28;20047;-45
2022/04/05 07:24:03;;;;;;;2.38;0.60;;;22.10;48.80;;;;;;6054304;27;21252;-45
2022/04/05 07:27:05;;;;;;;1.05;0.50;;;22.20;48.70;;;;;;6088203;27;20039;-47
2022/04/05 07:30:08;;;;;;;1.70;0.57;;;22.20;48.70;;;;;;6056863;27;20061;-44
2022/04/05 07:33:10;;;;;;;0.57;0.40;;;22.30;48.70;;;;;;6027611;28;20157;-49
2022/04/05 07:36:11;;;;;;;1.13;0.50;;;22.40;48.70;;;;;;6001222;28;20066;-46
2022/04/05 07:39:13;;;;;;;1.92;0.63;;;22.30;48.60;;;;;;5995381;27;20103;-47
2022/04/05 07:42:15;;;;;;;1.60;0.30;;;22.20;49.00;;;;;;6016110;27;22567;-46
2022/04/05 07:45:17;;;;;;;1.25;0.30;;;22.40;48.60;;;;;;6030175;27;20039;-45
2022/04/05 07:48:20;;;;;;;1.77;0.40;;;22.30;48.50;;;;;;6039446;27;20054;-45
2022/04/05 07:51:22;;;;;;;0.70;0.30;;;22.40;48.50;;;;;;6005042;28;20066;-44
2022/04/05 07:54:24;;;;;;;1.08;0.30;;;22.50;48.60;;;;;;6020080;28;21362;-47
2022/04/05 07:57:26;;;;;;;0.28;0.20;;;22.50;48.40;;;;;;6059315;27;20101;-46
2022/04/05 08:00:29;;;;;;;0.73;0.22;;;22.50;48.40;;;;;;6006033;27;20074;-45
2022/04/05 08:03:31;;;;;;;0.20;0.20;;;22.50;48.40;;;;;;5983807;28;20055;-45
2022/04/05 08:06:34;;;;;;;0.40;0.30;;;22.60;48.30;;;;;;6022479;27;20167;-48
2022/04/05 08:09:36;;;;;;;0.68;0.20;;;22.60;48.30;;;;;;6059414;27;20789;-46
2022/04/05 08:12:39;;;;;;;0.40;0.25;;;22.70;48.30;;;;;;5955174;27;20049;-47
2022/04/05 08:15:41;;;;;;;0.75;0.25;;;22.50;48.10;;;;;;6054576;27;20125;-46
2022/04/05 08:18:44;;;;;;;1.63;0.40;;;22.60;48.10;;;;;;6045472;28;20133;-48
2022/04/05 08:21:45;;;;;;;0.20;0.20;;;22.70;48.20;;;;;;6072111;27;20783;-47
2022/04/05 08:24:47;;;;;;;1.75;0.30;;;22.70;48.00;;;;;;6006499;27;20048;-46
2022/04/05 08:27:49;;;;;;;0.45;0.30;;;22.70;48.00;;;;;;6064303;28;20071;-47
2022/04/05 08:30:51;;;;;;;0.57;0.32;;;22.70;47.90;;;;;;6072146;27;20043;-47
2022/04/05 08:33:53;;;;;;;0.60;0.30;;;22.80;47.90;;;;;;6076969;27;20031;-46
2022/04/05 08:36:55;;;;;;;0.45;0.20;;;22.80;47.80;;;;;;6055215;27;20045;-47
2022/04/05 08:39:56;;;;;;;0.75;0.30;;;22.80;47.70;;;;;;6012141;28;22417;-49
2022/04/05 08:42:58;;;;;;;0.70;0.35;;;22.80;47.60;;;;;;6066199;28;20172;-47
2022/04/05 08:46:02;;;;;;;0.95;0.40;;;22.80;47.60;;;;;;6053284;27;20051;-47
2022/04/05 08:49:04;;;;;;;0.43;0.28;;;22.80;47.50;;;;;;6060589;28;20122;-46
2022/04/05 08:52:07;;;;;;;0.30;0.30;;;22.90;47.40;;;;;;6034026;28;21467;-47
2022/04/05 08:55:09;;;;;;;0.43;0.30;;;22.90;47.30;;;;;;5989646;27;20178;-48
2022/04/05 08:58:12;;;;;;;0.43;0.32;;;23.10;47.40;;;;;;6031809;27;20217;-47
2022/04/05 09:01:15;;;;;;;0.30;0.20;;;22.90;47.30;;;;;;5964661;27;21063;-48
2022/04/05 09:04:16;;;;;;;0.60;0.30;;;22.90;47.10;;;;;;5988764;27;20048;-48
2022/04/05 09:07:20;;;;;;;0.80;0.28;;;22.90;47.10;;;;;;5972137;27;20048;-46
2022/04/05 09:10:23;;;;;;;0.73;0.30;;;23.00;47.10;;;;;;5989239;27;23802;-49
2022/04/05 09:13:26;;;;;;;0.35;0.20;;;23.00;47.00;;;;;;5983261;27;20035;-49
2022/04/05 09:16:32;;;;;;;1.45;0.30;;;23.00;46.90;;;;;;5963933;27;20186;-47
2022/04/05 09:19:37;;;;;;;1.05;0.20;;;23.10;46.90;;;;;;5957562;28;20086;-46
2022/04/05 09:22:39;;;;;;;0.95;0.47;;;23.00;46.70;;;;;;5993561;28;20929;-44
2022/04/05 09:25:54;;;;;;;0.55;0.30;;;23.00;46.70;;;;;;6005037;27;20147;-46
2022/04/05 09:29:05;;;;;;;0.77;0.40;;;23.00;46.50;;;;;;6059390;27;21443;-47
2022/04/05 09:32:08;;;;;;;1.13;0.30;;;23.10;46.40;;;;;;6032602;27;20044;-46
2022/04/05 09:35:11;;;;;;;0.77;0.43;;;23.00;46.20;;;;;;5999478;27;20044;-44
2022/04/05 09:38:15;;;;;;;1.30;0.30;;;23.10;46.20;;;;;;6003921;27;20186;-47
2022/04/05 09:41:21;;;;;;;1.83;0.30;;;22.90;46.00;;;;;;5983252;28;20170;-45
2022/04/05 09:44:26;;;;;;;0.88;0.40;;;23.10;46.00;;;;;;6018684;27;20047;-47
2022/04/05 09:47:28;;;;;;;0.68;0.38;;;23.10;46.00;;;;;;5999439;27;20056;-47
2022/04/05 09:50:30;;;;;;;0.73;0.40;;;23.10;46.10;;;;;;6003823;28;20047;-44
2022/04/05 09:53:43;;;;;;;1.52;0.40;;;23.10;46.00;;;;;;6003589;28;20036;-44
2022/04/05 09:56:45;;;;;;;5.25;0.30;;;23.20;46.00;;;;;;6009544;27;20051;-45
2022/04/05 09:59:47;;;;;;;0.45;0.30;;;23.10;46.00;;;;;;5987764;27;20047;-45
2022/04/05 10:03:03;;;;;;;1.33;0.30;;;23.20;46.00;;;;;;6019491;27;20153;-47
2022/04/05 10:06:04;;;;;;;1.02;0.30;;;23.20;46.20;;;;;;5995460;27;20034;-45
2022/04/05 10:09:06;;;;;;;1.20;0.30;;;23.20;46.10;;;;;;6029642;28;20047;-46
2022/04/05 10:12:08;;;;;;;0.63;0.40;;;23.20;46.10;;;;;;6034805;27;20047;-46
2022/04/05 10:15:10;;;;;;;0.95;0.30;;;23.20;46.20;;;;;;6044647;27;29154;-45
2022/04/05 10:18:14;;;;;;;0.82;0.22;;;23.20;46.20;;;;;;6055710;27;20047;-46
2022/04/05 10:21:17;;;;;;;1.50;0.35;;;23.20;46.30;;;;;;6088874;27;20163;-46
2022/04/05 10:24:21;;;;;;;1.35;0.30;;;23.20;46.20;;;;;;6049503;28;20063;-47
2022/04/05 10:27:25;;;;;;;1.63;0.30;;;23.00;46.10;;;;;;6097050;28;20036;-45
2022/04/05 10:30:33;;;;;;;0.35;0.30;;;23.20;46.10;;;;;;6051079;28;21923;-45
2022/04/05 10:33:43;;;;;;;0.45;0.30;;;23.20;46.10;;;;;;6078461;28;20166;-45
2022/04/05 10:37:07;;;;;;;0.52;0.30;;;23.20;46.00;;;;;;6117072;27;20275;-46
2022/04/05 10:40:15;;;;;;;0.50;0.30;;;23.20;46.60;;;;;;6083624;27;20083;-44
2022/04/05 10:43:18;;;;;;;0.73;0.35;;;23.20;46.00;;;;;;6136891;27;20036;-45
2022/04/05 10:46:38;;;;;;;0.75;0.25;;;23.20;45.90;;;;;;6049459;28;20047;-46
2022/04/05 10:50:15;;;;;;;0.30;0.10;;;23.20;45.90;;;;;;6109203;28;20032;-44
2022/04/05 10:53:19;;;;;;;0.40;0.30;;;23.20;45.90;;;;;;6175271;27;20123;-48
2022/04/05 10:56:21;;;;;;;0.30;0.20;;;23.20;45.90;;;;;;6138935;27;20054;-48
2022/04/05 10:59:23;;;;;;;0.50;0.38;;;23.20;45.90;;;;;;6176399;27;20062;-46
2022/04/05 11:02:33;;;;;;;0.32;0.20;;;23.20;45.90;;;;;;6116353;27;20051;-47
2022/04/05 11:05:38;;;;;;;0.40;0.22;;;23.20;45.80;;;;;;6090778;27;20039;-48
2022/04/05 11:08:42;;;;;;;0.30;0.20;;;23.20;45.70;;;;;;6118994;28;20047;-44
2022/04/05 11:11:44;;;;;;;0.60;0.38;;;23.20;45.60;;;;;;6162613;28;20066;-45
2022/04/05 11:14:50;;;;;;;0.75;0.40;;;23.20;45.60;;;;;;6134006;28;20111;-48
2022/04/05 11:17:52;;;;;;;0.40;0.38;;;23.20;45.50;;;;;;6121251;28;20125;-46
2022/04/05 11:20:57;;;;;;;0.85;0.40;;;23.20;45.50;;;;;;6167300;28;20162;-45
2022/04/05 11:23:58;;;;;;;0.20;0.20;;;23.20;45.40;;;;;;6137076;28;20045;-45
2022/04/05 11:27:19;;;;;;;2.78;0.65;;;23.30;45.50;;;;;;6081310;28;20232;-46
2022/04/05 11:30:39;;;;;;;0.68;0.35;;;23.30;45.40;;;;;;6150735;27;20052;-46
2022/04/05 11:33:42;;;;;;;0.20;0.20;;;23.30;45.30;;;;;;6165873;27;20136;-43
2022/04/05 11:36:44;;;;;;;0.45;0.20;;;23.30;45.30;;;;;;6139191;27;20051;-44
2022/04/05 11:39:46;;;;;;;0.30;0.20;;;23.30;45.40;;;;;;6100396;27;20048;-44
2022/04/05 11:42:48;;;;;;;0.50;0.40;;;23.30;45.40;;;;;;6073358;28;20080;-47
2022/04/05 11:45:51;;;;;;;0.73;0.30;;;23.30;45.20;;;;;;6135078;27;20612;-49
2022/04/05 11:48:54;;;;;;;0.30;0.25;;;23.30;45.20;;;;;;6120007;28;20821;-46
2022/04/05 11:51:56;;;;;;;0.70;0.30;;;23.30;45.20;;;;;;6096899;28;20043;-44
2022/04/05 11:58:25;;;;;;;0.40;0.22;;;23.30;45.40;;;;;;5995757;27;20044;-48
2022/04/05 12:01:28;;;;;;;1.45;0.20;;;23.30;45.20;;;;;;5973565;27;20070;-50
2022/04/05 12:04:32;;;;;;;0.45;0.30;;;23.40;45.30;;;;;;5908367;27;22168;-45
2022/04/05 12:07:35;;;;;;;0.82;0.20;;;23.30;45.20;;;;;;5953424;28;20047;-44
2022/04/05 12:10:37;;;;;;;0.80;0.22;;;23.40;45.20;;;;;;5972964;27;20044;-45
2022/04/05 12:13:39;;;;;;;1.08;0.50;;;23.40;45.20;;;;;;5938898;27;20067;-46
2022/04/05 12:16:46;;;;;;;4.68;0.90;;;23.40;45.10;;;;;;5995231;27;21899;-45
2022/04/05 12:19:52;;;;;;;1.95;0.80;;;23.40;45.00;;;;;;5982077;28;22204;-44
2022/04/05 12:22:54;;;;;;;2.75;0.90;;;23.40;44.90;;;;;;6010512;27;20161;-44
2022/04/05 12:26:12;;;;;;;3.58;1.20;;;23.30;44.80;;;;;;6005575;27;20147;-44
2022/04/05 12:29:14;;;;;;;3.70;1.10;;;23.30;44.70;;;;;;5969713;27;20040;-44
2022/04/05 12:32:15;;;;;;;2.22;0.88;;;23.30;44.70;;;;;;5988292;28;20036;-43
2022/04/05 12:35:20;;;;;;;1.60;0.65;;;23.30;44.60;;;;;;6026863;27;20036;-42
2022/04/05 12:38:23;;;;;;;1.88;0.88;;;23.30;44.60;;;;;;6022164;27;20044;-43
2022/04/05 12:41:25;;;;;;;1.77;0.70;;;23.30;44.60;;;;;;5993025;27;20058;-46
2022/04/05 12:44:29;;;;;;;1.27;0.55;;;23.40;44.60;;;;;;5978252;27;20173;-46
2022/04/05 12:47:32;;;;;;;2.13;0.50;;;23.30;44.50;;;;;;5994355;27;20039;-47
2022/04/05 12:50:41;;;;;;;1.27;0.52;;;23.40;44.50;;;;;;6000569;27;20048;-45
2022/04/05 12:53:43;;;;;;;2.33;0.63;;;23.40;44.50;;;;;;5962954;28;20578;-46
2022/04/05 12:56:45;;;;;;;1.38;0.50;;;23.40;44.50;;;;;;5991594;28;20044;-43
2022/04/05 12:59:49;;;;;;;1.20;0.50;;;23.40;44.50;;;;;;5946003;28;20058;-45
2022/04/05 13:02:53;;;;;;;2.55;0.50;;;23.60;44.70;;;;;;5966457;28;20039;-46
2022/04/05 13:09:14;;;;;;;1.00;0.57;;;23.50;44.50;;;;;;5983549;27;21695;-44
2022/04/05 13:12:17;;;;;;;1.25;0.47;;;23.60;44.50;;;;;;5978406;27;20028;-45
2022/04/05 13:15:22;;;;;;;0.82;0.20;;;23.60;44.50;;;;;;5965643;27;20117;-44
2022/04/05 13:18:32;;;;;;;1.33;0.50;;;23.60;44.50;;;;;;6005638;28;21089;-43
2022/04/05 13:21:41;;;;;;;0.77;0.40;;;23.60;44.40;;;;;;5969032;28;20200;-42
2022/04/05 13:24:45;;;;;;;1.25;0.40;;;23.60;44.40;;;;;;5910783;27;20046;-42
2022/04/05 13:27:58;;;;;;;1.02;0.40;;;23.60;44.40;;;;;;5979345;27;20048;-43
2022/04/05 13:31:11;;;;;;;1.15;0.38;;;23.60;44.30;;;;;;5925261;27;20166;-44
2022/04/05 13:34:16;;;;;;;0.60;0.30;;;23.60;44.40;;;;;;5957051;27;22683;-43
2022/04/05 13:37:19;;;;;;;1.52;0.40;;;23.80;44.30;;;;;;5954755;28;20036;-44
2022/04/05 13:40:21;;;;;;;0.47;0.30;;;23.70;44.20;;;;;;5977909;28;20100;-49
2022/04/05 13:43:23;;;;;;;0.85;0.30;;;23.60;44.10;;;;;;5927618;27;20042;-45
2022/04/05 13:46:25;;;;;;;1.05;0.32;;;23.60;44.20;;;;;;5921139;28;20051;-45
2022/04/05 13:49:27;;;;;;;2.20;0.50;;;23.70;44.20;;;;;;5950778;27;20619;-43
2022/04/05 13:52:29;;;;;;;0.45;0.32;;;23.80;44.20;;;;;;5964321;27;20075;-43
2022/04/05 13:55:35;;;;;;;0.82;0.47;;;23.60;44.00;;;;;;5946305;27;20035;-44
2022/04/05 13:58:37;;;;;;;0.80;0.40;;;23.60;44.00;;;;;;6004361;27;20057;-43
2022/04/05 14:01:39;;;;;;;1.40;0.30;;;23.60;43.90;;;;;;5942901;28;20050;-41
2022/04/05 14:04:41;;;;;;;0.68;0.30;;;23.60;44.00;;;;;;5963868;28;20044;-44
2022/04/05 14:07:43;;;;;;;0.82;0.30;;;23.60;43.90;;;;;;5975093;27;20170;-45
2022/04/05 14:10:45;;;;;;;0.85;0.40;;;23.60;43.90;;;;;;6015905;27;20246;-45
2022/04/05 14:14:07;;;;;;;0.70;0.38;;;23.60;43.80;;;;;;5965047;27;20047;-45
2022/04/05 14:17:09;;;;;;;0.45;0.40;;;23.60;43.80;;;;;;6026252;27;21373;-44
2022/04/05 14:20:11;;;;;;;0.65;0.40;;;23.60;43.80;;;;;;5965232;27;23438;-44
2022/04/05 14:23:12;;;;;;;0.57;0.30;;;23.60;43.80;;;;;;5991164;27;21679;-44
2022/04/05 14:26:14;;;;;;;0.65;0.30;;;23.70;43.80;;;;;;5969097;28;20566;-44
2022/04/05 14:29:17;;;;;;;0.70;0.40;;;23.60;43.70;;;;;;6003399;28;21554;-47
2022/04/05 14:32:19;;;;;;;0.70;0.30;;;23.60;43.60;;;;;;6006983;28;20052;-44
2022/04/05 14:35:21;;;;;;;0.57;0.40;;;23.60;43.60;;;;;;5990651;27;20038;-46
2022/04/05 14:38:28;;;;;;;0.45;0.38;;;23.60;43.50;;;;;;6016038;27;21025;-44
2022/04/05 14:41:32;;;;;;;1.75;0.47;;;23.70;43.50;;;;;;5986042;27;20039;-44
2022/04/05 14:44:34;;;;;;;0.47;0.30;;;23.70;43.50;;;;;;6006213;27;20047;-44
2022/04/05 14:47:35;;;;;;;0.73;0.43;;;23.70;43.40;;;;;;5990426;27;20055;-44
2022/04/05 14:50:37;;;;;;;1.77;0.40;;;23.70;43.40;;;;;;6019670;27;20158;-45
2022/04/05 14:53:50;;;;;;;0.55;0.30;;;23.70;43.30;;;;;;5990665;28;20153;-44
2022/04/05 14:56:52;;;;;;;0.90;0.50;;;23.70;43.30;;;;;;6014341;28;21103;-44
2022/04/05 14:59:57;;;;;;;0.95;0.40;;;23.70;43.30;;;;;;5999730;27;20081;-44
2022/04/05 15:02:59;;;;;;;1.48;0.45;;;23.70;43.30;;;;;;5984280;27;20066;-43
2022/04/05 15:06:01;;;;;;;0.40;0.35;;;23.70;43.20;;;;;;6019047;27;20038;-46
2022/04/05 15:09:03;;;;;;;0.85;0.40;;;23.60;43.10;;;;;;6018419;28;20044;-42
2022/04/05 15:12:07;;;;;;;0.25;0.20;;;23.70;43.30;;;;;;6053460;28;20162;-42
2022/04/05 15:15:11;;;;;;;0.32;0.20;;;23.60;43.00;;;;;;5987163;28;20200;-43
2022/04/05 15:18:12;;;;;;;0.70;0.40;;;23.70;43.10;;;;;;6063979;27;20036;-44
2022/04/05 15:21:14;;;;;;;0.45;0.20;;;23.70;43.10;;;;;;6086341;27;20043;-44
2022/04/05 15:24:22;;;;;;;0.88;0.40;;;23.60;43.00;;;;;;6033685;27;20369;-42
2022/04/05 15:27:25;;;;;;;1.85;0.50;;;23.70;43.00;;;;;;6068671;27;20055;-46
2022/04/05 15:30:32;;;;;;;0.90;0.40;;;23.70;43.00;;;;;;6087326;27;20035;-46
2022/04/05 15:33:35;;;;;;;0.52;0.30;;;23.70;42.90;;;;;;6035242;27;20040;-45
2022/04/05 15:36:37;;;;;;;1.58;0.30;;;23.70;42.90;;;;;;6068619;27;20785;-42
2022/04/05 15:39:40;;;;;;;0.47;0.30;;;23.70;42.80;;;;;;6108433;27;20063;-47
2022/04/05 15:42:44;;;;;;;0.50;0.30;;;23.70;42.80;;;;;;6097005;27;21555;-46
2022/04/05 15:45:46;;;;;;;0.73;0.30;;;23.70;42.80;;;;;;6084933;27;23202;-43
2022/04/05 15:48:49;;;;;;;0.60;0.20;;;23.70;42.80;;;;;;6107895;28;22114;-42
2022/04/05 15:51:51;;;;;;;1.40;0.60;;;23.70;42.70;;;;;;6102591;27;20045;-42
2022/04/05 15:54:54;;;;;;;0.50;0.40;;;23.70;42.70;;;;;;6119518;27;20067;-46
2022/04/05 15:57:57;;;;;;;0.52;0.30;;;23.70;42.60;;;;;;6122738;27;20162;-44
2022/04/05 16:00:58;;;;;;;0.90;0.30;;;23.70;42.50;;;;;;6108097;27;20055;-44
2022/04/05 16:04:01;;;;;;;0.68;0.32;;;23.70;42.40;;;;;;6108283;27;20067;-42
2022/04/05 16:07:04;;;;;;;0.88;0.50;;;23.80;42.40;;;;;;6113850;27;20039;-44